WXM80 ListenWXM80 Stop

You find our weather info also at:

UK Metoffice

WeatherCloud

Weather Underground

Northeastern Weather Network

AWEKAS

Citizen Weather Observer Program (CWOP)

HAMweather, WeatherForYou, PWS Weather


Weather Underground History page Text

Daily Summary for October 5, 2017 Units:  Both    English   Metric
« Previous Day
Next Day »
Daily Weekly Monthly Yearly Custom
  High: Low: Average:
Temperature: 84.6 °F /  29.2 °C 63.7 °F /  17.6 °C 72.4 °F /  22.4 °C
Dew Point: 69.1 °F /  20.6 °C 58.8 °F /  14.9 °C 63.3 °F /  17.4 °C
Humidity: 87 % 54 % 74 %
Wind Speed: 5.8 mph /  9.3 km/h - 1.8 mph /  2.9 km/h
Wind Gust: 11.5 mph /  18.5 km/h - -
Wind:- - SW
Pressure: 30.15 in /  1020.9 hPa 29.90 in /  1012.4 hPa -
Precipitation: 0.00 in /  0 mm    
Historical Graphs
 
 
Tabular Data for October 5, 2017
Time Temperature Dew Point Pressure Wind Wind Speed Wind Gust Humidity Rainfall Rate (Hourly)
00:02 64.5 °F /  18.1 °C 60.2 °F /  15.7 °C 30.15 in /  1020.9 hPa SW 3.7 mph /  6 km/h 11.5 mph /  18.5 km/h 86 % 0.00 in /  0 mm
00:07 64.6 °F /  18.1 °C 60.0 °F /  15.6 °C 30.15 in /  1020.9 hPa SW 1.2 mph /  1.9 km/h 3.0 mph /  4.8 km/h 85 % 0.00 in /  0 mm
00:12 64.6 °F /  18.1 °C 60.0 °F /  15.6 °C 30.15 in /  1020.9 hPa WSW 3.0 mph /  4.8 km/h 4.0 mph /  6.4 km/h 85 % 0.00 in /  0 mm
00:17 64.6 °F /  18.1 °C 60.0 °F /  15.6 °C 30.15 in /  1020.9 hPa South 0.3 mph /  0.5 km/h 3.5 mph /  5.6 km/h 85 % 0.00 in /  0 mm
00:22 64.6 °F /  18.1 °C 59.7 °F /  15.4 °C 30.15 in /  1020.9 hPa SW 2.0 mph /  3.2 km/h 7.0 mph /  11.3 km/h 84 % 0.00 in /  0 mm
00:27 64.6 °F /  18.1 °C 59.7 °F /  15.4 °C 30.15 in /  1020.9 hPa West 1.8 mph /  2.9 km/h 8.0 mph /  12.9 km/h 84 % 0.00 in /  0 mm
00:32 64.6 °F /  18.1 °C 59.7 °F /  15.4 °C 30.15 in /  1020.9 hPa SSW 2.8 mph /  4.5 km/h 8.1 mph /  13 km/h 84 % 0.00 in /  0 mm
00:37 64.6 °F /  18.1 °C 59.7 °F /  15.4 °C 30.14 in /  1020.5 hPa SW 4.2 mph /  6.8 km/h 4.6 mph /  7.4 km/h 84 % 0.00 in /  0 mm
00:43 64.6 °F /  18.1 °C 59.7 °F /  15.4 °C 30.14 in /  1020.5 hPa SSW 2.0 mph /  3.2 km/h 4.6 mph /  7.4 km/h 84 % 0.00 in /  0 mm
00:48 64.6 °F /  18.1 °C 59.7 °F /  15.4 °C 30.14 in /  1020.5 hPa SSW 2.8 mph /  4.5 km/h 4.0 mph /  6.4 km/h 84 % 0.00 in /  0 mm
00:53 64.5 °F /  18.1 °C 59.6 °F /  15.3 °C 30.14 in /  1020.5 hPa SSW 4.6 mph /  7.4 km/h 6.9 mph /  11.1 km/h 84 % 0.00 in /  0 mm
00:58 64.5 °F /  18.1 °C 59.2 °F /  15.1 °C 30.14 in /  1020.5 hPa SSW 2.2 mph /  3.5 km/h 6.9 mph /  11.1 km/h 83 % 0.00 in /  0 mm
01:03 64.5 °F /  18.1 °C 59.2 °F /  15.1 °C 30.14 in /  1020.5 hPa SSW 2.1 mph /  3.4 km/h 6.9 mph /  11.1 km/h 83 % 0.00 in /  0 mm
01:08 64.5 °F /  18.1 °C 59.2 °F /  15.1 °C 30.14 in /  1020.5 hPa SW 3.3 mph /  5.3 km/h 8.1 mph /  13 km/h 83 % 0.00 in /  0 mm
01:13 64.5 °F /  18.1 °C 59.2 °F /  15.1 °C 30.14 in /  1020.5 hPa SW 3.7 mph /  6 km/h 9.2 mph /  14.8 km/h 83 % 0.00 in /  0 mm
01:18 64.5 °F /  18.1 °C 59.2 °F /  15.1 °C 30.14 in /  1020.5 hPa SSW 1.0 mph /  1.6 km/h 4.6 mph /  7.4 km/h 83 % 0.00 in /  0 mm
01:23 64.5 °F /  18.1 °C 59.2 °F /  15.1 °C 30.14 in /  1020.5 hPa SW 0.3 mph /  0.5 km/h 2.3 mph /  3.7 km/h 83 % 0.00 in /  0 mm
01:28 64.5 °F /  18.1 °C 59.2 °F /  15.1 °C 30.13 in /  1020.2 hPa SW 1.6 mph /  2.6 km/h 3.5 mph /  5.6 km/h 83 % 0.00 in /  0 mm
01:33 64.5 °F /  18.1 °C 59.2 °F /  15.1 °C 30.13 in /  1020.2 hPa SSW 1.3 mph /  2.1 km/h 4.6 mph /  7.4 km/h 83 % 0.00 in /  0 mm
01:35 64.5 °F /  18.1 °C 59.2 °F /  15.1 °C 30.13 in /  1020.2 hPa West 0.9 mph /  1.4 km/h 6.9 mph /  11.1 km/h 83 % 0.00 in /  0 mm
01:40 64.4 °F /  18 °C 59.1 °F /  15.1 °C 30.13 in /  1020.2 hPa WSW 0.5 mph /  0.8 km/h 2.3 mph /  3.7 km/h 83 % 0.00 in /  0 mm
01:45 64.4 °F /  18 °C 59.1 °F /  15.1 °C 30.13 in /  1020.2 hPa SW 1.6 mph /  2.6 km/h 3.5 mph /  5.6 km/h 83 % 0.00 in /  0 mm
01:50 64.4 °F /  18 °C 59.1 °F /  15.1 °C 30.13 in /  1020.2 hPa SW 0.9 mph /  1.4 km/h 2.3 mph /  3.7 km/h 83 % 0.00 in /  0 mm
01:55 64.3 °F /  17.9 °C 59.4 °F /  15.2 °C 30.13 in /  1020.2 hPa SW 1.3 mph /  2.1 km/h 4.0 mph /  6.4 km/h 84 % 0.00 in /  0 mm
02:01 64.3 °F /  17.9 °C 59.4 °F /  15.2 °C 30.13 in /  1020.2 hPa SSE 0.1 mph /  0.2 km/h 2.3 mph /  3.7 km/h 84 % 0.00 in /  0 mm
02:06 64.3 °F /  17.9 °C 59.0 °F /  15 °C 30.13 in /  1020.2 hPa SW 0.4 mph /  0.6 km/h 3.5 mph /  5.6 km/h 83 % 0.00 in /  0 mm
02:11 64.2 °F /  17.9 °C 59.3 °F /  15.2 °C 30.13 in /  1020.2 hPa WSW 2.3 mph /  3.7 km/h 9.2 mph /  14.8 km/h 84 % 0.00 in /  0 mm
02:16 64.2 °F /  17.9 °C 59.3 °F /  15.2 °C 30.12 in /  1019.9 hPa SW 2.0 mph /  3.2 km/h 3.5 mph /  5.6 km/h 84 % 0.00 in /  0 mm
02:26 64.3 °F /  17.9 °C 59.0 °F /  15 °C 30.13 in /  1020.2 hPa WSW 0.5 mph /  0.8 km/h 6.0 mph /  9.7 km/h 83 % 0.00 in /  0 mm
02:31 64.4 °F /  18 °C 59.1 °F /  15.1 °C 30.13 in /  1020.2 hPa SW 0.3 mph /  0.5 km/h 2.3 mph /  3.7 km/h 83 % 0.00 in /  0 mm
02:36 64.5 °F /  18.1 °C 59.2 °F /  15.1 °C 30.13 in /  1020.2 hPa SW 1.9 mph /  3.1 km/h 5.0 mph /  8 km/h 83 % 0.00 in /  0 mm
02:41 64.6 °F /  18.1 °C 59.3 °F /  15.2 °C 30.12 in /  1019.9 hPa WSW 2.7 mph /  4.3 km/h 6.9 mph /  11.1 km/h 83 % 0.00 in /  0 mm
02:46 64.7 °F /  18.2 °C 59.1 °F /  15.1 °C 30.12 in /  1019.9 hPa SSW 2.3 mph /  3.7 km/h 8.1 mph /  13 km/h 82 % 0.00 in /  0 mm
02:51 64.8 °F /  18.2 °C 59.2 °F /  15.1 °C 30.12 in /  1019.9 hPa SW 1.5 mph /  2.4 km/h 4.0 mph /  6.4 km/h 82 % 0.00 in /  0 mm
02:56 64.9 °F /  18.3 °C 59.3 °F /  15.2 °C 30.12 in /  1019.9 hPa South 1.7 mph /  2.7 km/h 4.6 mph /  7.4 km/h 82 % 0.00 in /  0 mm
03:01 65.1 °F /  18.4 °C 59.5 °F /  15.3 °C 30.11 in /  1019.5 hPa SSW 2.5 mph /  4 km/h 6.9 mph /  11.1 km/h 82 % 0.00 in /  0 mm
03:06 65.2 °F /  18.4 °C 59.2 °F /  15.1 °C 30.11 in /  1019.5 hPa SSW 5.8 mph /  9.3 km/h 8.1 mph /  13 km/h 81 % 0.00 in /  0 mm
03:11 65.2 °F /  18.4 °C 59.2 °F /  15.1 °C 30.11 in /  1019.5 hPa WSW 2.1 mph /  3.4 km/h 11.5 mph /  18.5 km/h 81 % 0.00 in /  0 mm
03:16 65.3 °F /  18.5 °C 59.3 °F /  15.2 °C 30.11 in /  1019.5 hPa SSW 5.1 mph /  8.2 km/h 5.8 mph /  9.3 km/h 81 % 0.00 in /  0 mm
03:21 65.3 °F /  18.5 °C 59.3 °F /  15.2 °C 30.10 in /  1019.2 hPa SSW 4.5 mph /  7.2 km/h 6.9 mph /  11.1 km/h 81 % 0.00 in /  0 mm
03:26 65.4 °F /  18.6 °C 59.4 °F /  15.2 °C 30.10 in /  1019.2 hPa WSW 3.2 mph /  5.1 km/h 5.8 mph /  9.3 km/h 81 % 0.00 in /  0 mm
03:31 65.4 °F /  18.6 °C 59.4 °F /  15.2 °C 30.10 in /  1019.2 hPa SSW 4.5 mph /  7.2 km/h 9.2 mph /  14.8 km/h 81 % 0.00 in /  0 mm
03:37 65.5 °F /  18.6 °C 59.2 °F /  15.1 °C 30.10 in /  1019.2 hPa SW 3.7 mph /  6 km/h 11.5 mph /  18.5 km/h 80 % 0.00 in /  0 mm
03:47 65.6 °F /  18.7 °C 59.3 °F /  15.2 °C 30.10 in /  1019.2 hPa SSW 2.7 mph /  4.3 km/h 4.0 mph /  6.4 km/h 80 % 0.00 in /  0 mm
03:52 65.6 °F /  18.7 °C 59.6 °F /  15.3 °C 30.10 in /  1019.2 hPa SW 2.9 mph /  4.7 km/h 5.8 mph /  9.3 km/h 81 % 0.00 in /  0 mm
04:02 65.7 °F /  18.7 °C 59.4 °F /  15.2 °C 30.10 in /  1019.2 hPa WSW 2.7 mph /  4.3 km/h 9.2 mph /  14.8 km/h 80 % 0.00 in /  0 mm
04:07 65.7 °F /  18.7 °C 59.4 °F /  15.2 °C 30.10 in /  1019.2 hPa Calm   1.2 mph /  1.9 km/h 80 % 0.00 in /  0 mm
04:12 65.7 °F /  18.7 °C 59.7 °F /  15.4 °C 30.10 in /  1019.2 hPa SSW 0.3 mph /  0.5 km/h 6.9 mph /  11.1 km/h 81 % 0.00 in /  0 mm
04:17 65.7 °F /  18.7 °C 59.4 °F /  15.2 °C 30.09 in /  1018.8 hPa WSW 2.0 mph /  3.2 km/h 7.0 mph /  11.3 km/h 80 % 0.00 in /  0 mm
04:22 65.7 °F /  18.7 °C 59.7 °F /  15.4 °C 30.09 in /  1018.8 hPa Calm     81 % 0.00 in /  0 mm
04:27 65.6 °F /  18.7 °C 59.3 °F /  15.2 °C 30.09 in /  1018.8 hPa SW 2.6 mph /  4.2 km/h 4.6 mph /  7.4 km/h 80 % 0.00 in /  0 mm
04:32 65.6 °F /  18.7 °C 59.6 °F /  15.3 °C 30.09 in /  1018.8 hPa SW 2.7 mph /  4.3 km/h 5.8 mph /  9.3 km/h 81 % 0.00 in /  0 mm
04:37 65.6 °F /  18.7 °C 59.6 °F /  15.3 °C 30.10 in /  1019.2 hPa WSW 0.1 mph /  0.2 km/h 2.0 mph /  3.2 km/h 81 % 0.00 in /  0 mm
04:42 65.6 °F /  18.7 °C 59.6 °F /  15.3 °C 30.09 in /  1018.8 hPa SSW 2.9 mph /  4.7 km/h 4.6 mph /  7.4 km/h 81 % 0.00 in /  0 mm
04:47 65.5 °F /  18.6 °C 59.5 °F /  15.3 °C 30.09 in /  1018.8 hPa WSW 0.2 mph /  0.3 km/h 1.2 mph /  1.9 km/h 81 % 0.00 in /  0 mm
04:52 65.4 °F /  18.6 °C 59.4 °F /  15.2 °C 30.09 in /  1018.8 hPa SW 3.9 mph /  6.3 km/h 5.8 mph /  9.3 km/h 81 % 0.00 in /  0 mm
04:57 65.4 °F /  18.6 °C 59.4 °F /  15.2 °C 30.09 in /  1018.8 hPa SW 0.8 mph /  1.3 km/h 3.5 mph /  5.6 km/h 81 % 0.00 in /  0 mm
05:02 65.3 °F /  18.5 °C 59.3 °F /  15.2 °C 30.09 in /  1018.8 hPa Calm   1.2 mph /  1.9 km/h 81 % 0.00 in /  0 mm
05:07 65.2 °F /  18.4 °C 59.2 °F /  15.1 °C 30.09 in /  1018.8 hPa SW 0.4 mph /  0.6 km/h 2.0 mph /  3.2 km/h 81 % 0.00 in /  0 mm
05:12 65.2 °F /  18.4 °C 59.2 °F /  15.1 °C 30.09 in /  1018.8 hPa Calm   2.3 mph /  3.7 km/h 81 % 0.00 in /  0 mm
05:17 65.1 °F /  18.4 °C 59.5 °F /  15.3 °C 30.10 in /  1019.2 hPa Calm     82 % 0.00 in /  0 mm
05:22 65.0 °F /  18.3 °C 59.4 °F /  15.2 °C 30.10 in /  1019.2 hPa Calm     82 % 0.00 in /  0 mm
05:32 64.8 °F /  18.2 °C 59.2 °F /  15.1 °C 30.10 in /  1019.2 hPa Calm     82 % 0.00 in /  0 mm
05:37 64.7 °F /  18.2 °C 59.1 °F /  15.1 °C 30.10 in /  1019.2 hPa Calm   1.2 mph /  1.9 km/h 82 % 0.00 in /  0 mm
05:43 64.5 °F /  18.1 °C 58.9 °F /  14.9 °C 30.10 in /  1019.2 hPa South 0.1 mph /  0.2 km/h   82 % 0.00 in /  0 mm
05:48 64.5 °F /  18.1 °C 59.2 °F /  15.1 °C 30.10 in /  1019.2 hPa Calm   1.2 mph /  1.9 km/h 83 % 0.00 in /  0 mm
05:53 64.4 °F /  18 °C 59.1 °F /  15.1 °C 30.10 in /  1019.2 hPa SSW 0.1 mph /  0.2 km/h 1.2 mph /  1.9 km/h 83 % 0.00 in /  0 mm
05:58 64.2 °F /  17.9 °C 58.9 °F /  14.9 °C 30.10 in /  1019.2 hPa Calm     83 % 0.00 in /  0 mm
06:03 64.1 °F /  17.8 °C 58.8 °F /  14.9 °C 30.10 in /  1019.2 hPa SSW 0.1 mph /  0.2 km/h 1.2 mph /  1.9 km/h 83 % 0.00 in /  0 mm
06:08 64.0 °F /  17.8 °C 59.1 °F /  15.1 °C 30.10 in /  1019.2 hPa SW 1.1 mph /  1.8 km/h 2.3 mph /  3.7 km/h 84 % 0.00 in /  0 mm
06:13 63.9 °F /  17.7 °C 59.0 °F /  15 °C 30.10 in /  1019.2 hPa WSW 1.0 mph /  1.6 km/h 6.9 mph /  11.1 km/h 84 % 0.00 in /  0 mm
06:23 63.8 °F /  17.7 °C 59.2 °F /  15.1 °C 30.10 in /  1019.2 hPa SW 2.5 mph /  4 km/h 3.5 mph /  5.6 km/h 85 % 0.00 in /  0 mm
06:28 63.7 °F /  17.6 °C 59.1 °F /  15.1 °C 30.10 in /  1019.2 hPa SW 0.8 mph /  1.3 km/h 2.3 mph /  3.7 km/h 85 % 0.00 in /  0 mm
06:33 63.7 °F /  17.6 °C 59.1 °F /  15.1 °C 30.11 in /  1019.5 hPa SSW 2.9 mph /  4.7 km/h 4.6 mph /  7.4 km/h 85 % 0.00 in /  0 mm
06:38 63.7 °F /  17.6 °C 59.1 °F /  15.1 °C 30.11 in /  1019.5 hPa WSW 2.4 mph /  3.9 km/h 3.5 mph /  5.6 km/h 85 % 0.00 in /  0 mm
06:43 63.7 °F /  17.6 °C 59.4 °F /  15.2 °C 30.11 in /  1019.5 hPa WSW 2.6 mph /  4.2 km/h 5.8 mph /  9.3 km/h 86 % 0.00 in /  0 mm
06:48 63.7 °F /  17.6 °C 59.4 °F /  15.2 °C 30.11 in /  1019.5 hPa WSW 2.3 mph /  3.7 km/h 5.8 mph /  9.3 km/h 86 % 0.00 in /  0 mm
06:53 63.7 °F /  17.6 °C 59.4 °F /  15.2 °C 30.10 in /  1019.2 hPa SW 3.5 mph /  5.6 km/h 8.1 mph /  13 km/h 86 % 0.00 in /  0 mm
06:58 63.7 °F /  17.6 °C 59.4 °F /  15.2 °C 30.11 in /  1019.5 hPa WSW 3.0 mph /  4.8 km/h 4.6 mph /  7.4 km/h 86 % 0.00 in /  0 mm
07:03 63.7 °F /  17.6 °C 59.4 °F /  15.2 °C 30.11 in /  1019.5 hPa WSW 3.2 mph /  5.1 km/h 5.8 mph /  9.3 km/h 86 % 0.00 in /  0 mm
07:08 63.8 °F /  17.7 °C 59.5 °F /  15.3 °C 30.12 in /  1019.9 hPa SW 3.5 mph /  5.6 km/h 5.8 mph /  9.3 km/h 86 % 0.00 in /  0 mm
07:13 63.8 °F /  17.7 °C 59.5 °F /  15.3 °C 30.11 in /  1019.5 hPa SW 2.1 mph /  3.4 km/h 3.5 mph /  5.6 km/h 86 % 0.00 in /  0 mm
07:18 63.8 °F /  17.7 °C 59.5 °F /  15.3 °C 30.11 in /  1019.5 hPa SSW 2.3 mph /  3.7 km/h 5.8 mph /  9.3 km/h 86 % 0.00 in /  0 mm
07:28 63.9 °F /  17.7 °C 59.6 °F /  15.3 °C 30.11 in /  1019.5 hPa WSW 1.4 mph /  2.3 km/h 3.5 mph /  5.6 km/h 86 % 0.00 in /  0 mm
07:33 63.9 °F /  17.7 °C 59.6 °F /  15.3 °C 30.11 in /  1019.5 hPa WSW 2.2 mph /  3.5 km/h 3.5 mph /  5.6 km/h 86 % 0.00 in /  0 mm
07:34 63.8 °F /  17.7 °C 59.5 °F /  15.3 °C 30.11 in /  1019.5 hPa WSW 1.7 mph /  2.7 km/h 3.5 mph /  5.6 km/h 86 % 0.00 in /  0 mm
07:39 63.9 °F /  17.7 °C 59.6 °F /  15.3 °C 30.11 in /  1019.5 hPa SW 1.4 mph /  2.3 km/h 3.5 mph /  5.6 km/h 86 % 0.00 in /  0 mm
07:44 63.9 °F /  17.7 °C 60.0 °F /  15.6 °C 30.11 in /  1019.5 hPa WSW 4.4 mph /  7.1 km/h 6.9 mph /  11.1 km/h 87 % 0.00 in /  0 mm
07:51 64.0 °F /  17.8 °C 60.1 °F /  15.6 °C 30.11 in /  1019.5 hPa SW 2.8 mph /  4.5 km/h 9.2 mph /  14.8 km/h 87 % 0.00 in /  0 mm
07:56 64.0 °F /  17.8 °C 60.1 °F /  15.6 °C 30.11 in /  1019.5 hPa SSW 3.8 mph /  6.1 km/h 4.6 mph /  7.4 km/h 87 % 0.00 in /  0 mm
08:00 64.2 °F /  17.9 °C 60.2 °F /  15.7 °C 30.11 in /  1019.5 hPa SW 3.5 mph /  5.6 km/h 4.6 mph /  7.4 km/h 87 % 0.00 in /  0 mm
08:05 64.4 °F /  18 °C 60.4 °F /  15.8 °C 30.12 in /  1019.9 hPa WSW 3.0 mph /  4.8 km/h 5.8 mph /  9.3 km/h 87 % 0.00 in /  0 mm
08:11 64.6 °F /  18.1 °C 60.3 °F /  15.7 °C 30.12 in /  1019.9 hPa SW 2.0 mph /  3.2 km/h 6.0 mph /  9.7 km/h 86 % 0.00 in /  0 mm
08:16 64.7 °F /  18.2 °C 60.5 °F /  15.8 °C 30.12 in /  1019.9 hPa SW 2.0 mph /  3.2 km/h 7.0 mph /  11.3 km/h 86 % 0.00 in /  0 mm
08:21 64.9 °F /  18.3 °C 60.6 °F /  15.9 °C 30.12 in /  1019.9 hPa SW 3.0 mph /  4.8 km/h 7.0 mph /  11.3 km/h 86 % 0.00 in /  0 mm
08:26 65.0 °F /  18.3 °C 60.4 °F /  15.8 °C 30.11 in /  1019.5 hPa SSW 1.1 mph /  1.8 km/h 2.3 mph /  3.7 km/h 85 % 0.00 in /  0 mm
08:31 65.2 °F /  18.4 °C 60.6 °F /  15.9 °C 30.11 in /  1019.5 hPa SW 1.0 mph /  1.6 km/h 5.0 mph /  8 km/h 85 % 0.00 in /  0 mm
08:36 65.3 °F /  18.5 °C 60.7 °F /  15.9 °C 30.11 in /  1019.5 hPa SW 1.0 mph /  1.6 km/h 3.0 mph /  4.8 km/h 85 % 0.00 in /  0 mm
08:41 65.4 °F /  18.6 °C 60.8 °F /  16 °C 30.11 in /  1019.5 hPa Calm   2.0 mph /  3.2 km/h 85 % 0.00 in /  0 mm
08:46 65.6 °F /  18.7 °C 60.9 °F /  16.1 °C 30.11 in /  1019.5 hPa SW 3.0 mph /  4.8 km/h 7.0 mph /  11.3 km/h 85 % 0.00 in /  0 mm
08:51 65.6 °F /  18.7 °C 60.6 °F /  15.9 °C 30.11 in /  1019.5 hPa SW 1.7 mph /  2.7 km/h 3.5 mph /  5.6 km/h 84 % 0.00 in /  0 mm
08:56 65.7 °F /  18.7 °C 60.7 °F /  15.9 °C 30.12 in /  1019.9 hPa SW 2.0 mph /  3.2 km/h 8.0 mph /  12.9 km/h 84 % 0.00 in /  0 mm
09:01 65.8 °F /  18.8 °C 60.8 °F /  16 °C 30.11 in /  1019.5 hPa West 0.5 mph /  0.8 km/h 4.6 mph /  7.4 km/h 84 % 0.00 in /  0 mm
09:06 65.9 °F /  18.8 °C 61.3 °F /  16.3 °C 30.12 in /  1019.9 hPa SW 1.2 mph /  1.9 km/h 2.3 mph /  3.7 km/h 85 % 0.00 in /  0 mm
09:11 66.0 °F /  18.9 °C 61.4 °F /  16.3 °C 30.11 in /  1019.5 hPa SW 3.0 mph /  4.8 km/h 4.6 mph /  7.4 km/h 85 % 0.00 in /  0 mm
09:16 66.1 °F /  18.9 °C 61.5 °F /  16.4 °C 30.11 in /  1019.5 hPa SW 2.7 mph /  4.3 km/h 5.8 mph /  9.3 km/h 85 % 0.00 in /  0 mm
09:26 66.5 °F /  19.2 °C 61.5 °F /  16.4 °C 30.11 in /  1019.5 hPa WSW 2.2 mph /  3.5 km/h 7.0 mph /  11.3 km/h 84 % 0.00 in /  0 mm
09:31 66.7 °F /  19.3 °C 61.4 °F /  16.3 °C 30.11 in /  1019.5 hPa WSW 2.7 mph /  4.3 km/h 6.0 mph /  9.7 km/h 83 % 0.00 in /  0 mm
09:36 66.9 °F /  19.4 °C 61.6 °F /  16.4 °C 30.11 in /  1019.5 hPa SW 2.5 mph /  4 km/h 5.8 mph /  9.3 km/h 83 % 0.00 in /  0 mm
09:41 67.2 °F /  19.6 °C 61.5 °F /  16.4 °C 30.10 in /  1019.2 hPa WSW 3.3 mph /  5.3 km/h 4.6 mph /  7.4 km/h 82 % 0.00 in /  0 mm
09:46 67.4 °F /  19.7 °C 61.7 °F /  16.5 °C 30.10 in /  1019.2 hPa SSW 3.0 mph /  4.8 km/h 4.0 mph /  6.4 km/h 82 % 0.00 in /  0 mm
09:51 67.6 °F /  19.8 °C 61.9 °F /  16.6 °C 30.10 in /  1019.2 hPa WSW 3.8 mph /  6.1 km/h 6.9 mph /  11.1 km/h 82 % 0.00 in /  0 mm
09:56 67.8 °F /  19.9 °C 61.8 °F /  16.6 °C 30.11 in /  1019.5 hPa WSW 4.1 mph /  6.6 km/h 7.0 mph /  11.3 km/h 81 % 0.00 in /  0 mm
10:01 68.1 °F /  20.1 °C 62.0 °F /  16.7 °C 30.11 in /  1019.5 hPa SSW 2.7 mph /  4.3 km/h 7.0 mph /  11.3 km/h 81 % 0.00 in /  0 mm
10:06 68.4 °F /  20.2 °C 62.3 °F /  16.8 °C 30.10 in /  1019.2 hPa SSW 5.0 mph /  8 km/h 5.8 mph /  9.3 km/h 81 % 0.00 in /  0 mm
10:11 68.8 °F /  20.4 °C 62.4 °F /  16.9 °C 30.10 in /  1019.2 hPa SW 3.8 mph /  6.1 km/h 5.0 mph /  8 km/h 80 % 0.00 in /  0 mm
10:16 69.3 °F /  20.7 °C 62.9 °F /  17.2 °C 30.11 in /  1019.5 hPa SSW 2.8 mph /  4.5 km/h 4.6 mph /  7.4 km/h 80 % 0.00 in /  0 mm
10:21 69.8 °F /  21 °C 63.0 °F /  17.2 °C 30.11 in /  1019.5 hPa West 1.5 mph /  2.4 km/h 3.5 mph /  5.6 km/h 79 % 0.00 in /  0 mm
10:26 70.2 °F /  21.2 °C 63.0 °F /  17.2 °C 30.11 in /  1019.5 hPa WNW 2.8 mph /  4.5 km/h 4.6 mph /  7.4 km/h 78 % 0.00 in /  0 mm
10:31 70.6 °F /  21.4 °C 62.7 °F /  17.1 °C 30.10 in /  1019.2 hPa WNW 1.5 mph /  2.4 km/h 3.5 mph /  5.6 km/h 76 % 0.00 in /  0 mm
10:36 70.9 °F /  21.6 °C 63.0 °F /  17.2 °C 30.10 in /  1019.2 hPa SW 3.1 mph /  5 km/h 6.9 mph /  11.1 km/h 76 % 0.00 in /  0 mm
10:41 71.2 °F /  21.8 °C 63.2 °F /  17.3 °C 30.09 in /  1018.8 hPa WSW 2.9 mph /  4.7 km/h 4.6 mph /  7.4 km/h 76 % 0.00 in /  0 mm
10:46 71.5 °F /  21.9 °C 63.5 °F /  17.5 °C 30.10 in /  1019.2 hPa West 1.1 mph /  1.8 km/h 3.5 mph /  5.6 km/h 76 % 0.00 in /  0 mm
10:51 71.8 °F /  22.1 °C 63.4 °F /  17.4 °C 30.09 in /  1018.8 hPa WNW 2.2 mph /  3.5 km/h 4.6 mph /  7.4 km/h 75 % 0.00 in /  0 mm
10:57 72.1 °F /  22.3 °C 63.4 °F /  17.4 °C 30.09 in /  1018.8 hPa WSW 0.4 mph /  0.6 km/h 4.6 mph /  7.4 km/h 74 % 0.00 in /  0 mm
11:02 72.7 °F /  22.6 °C 64.7 °F /  18.2 °C 30.09 in /  1018.8 hPa WSW 2.3 mph /  3.7 km/h 3.5 mph /  5.6 km/h 76 % 0.00 in /  0 mm
11:07 73.3 °F /  22.9 °C 64.9 °F /  18.3 °C 30.09 in /  1018.8 hPa WNW 1.1 mph /  1.8 km/h 3.5 mph /  5.6 km/h 75 % 0.00 in /  0 mm
11:10 73.7 °F /  23.2 °C 66.0 °F /  18.9 °C 30.09 in /  1018.8 hPa WNW 0.5 mph /  0.8 km/h 3.5 mph /  5.6 km/h 77 % 0.00 in /  0 mm
11:13 74.3 °F /  23.5 °C 65.1 °F /  18.4 °C 30.08 in /  1018.5 hPa SW 0.6 mph /  1 km/h 3.5 mph /  5.6 km/h 73 % 0.00 in /  0 mm
11:18 75.2 °F /  24 °C 65.9 °F /  18.8 °C 30.08 in /  1018.5 hPa West 0.8 mph /  1.3 km/h 3.0 mph /  4.8 km/h 73 % 0.00 in /  0 mm
11:23 76.2 °F /  24.6 °C 66.5 °F /  19.2 °C 30.08 in /  1018.5 hPa West 2.6 mph /  4.2 km/h 6.0 mph /  9.7 km/h 72 % 0.00 in /  0 mm
11:28 77.1 °F /  25.1 °C 66.1 °F /  18.9 °C 30.08 in /  1018.5 hPa NW 3.1 mph /  5 km/h 4.0 mph /  6.4 km/h 69 % 0.00 in /  0 mm
11:33 78.0 °F /  25.6 °C 65.7 °F /  18.7 °C 30.07 in /  1018.2 hPa West 1.1 mph /  1.8 km/h 3.5 mph /  5.6 km/h 66 % 0.00 in /  0 mm
11:38 78.6 °F /  25.9 °C 65.4 °F /  18.6 °C 30.07 in /  1018.2 hPa WNW 1.7 mph /  2.7 km/h 3.5 mph /  5.6 km/h 64 % 0.00 in /  0 mm
11:44 79.2 °F /  26.2 °C 66.4 °F /  19.1 °C 30.06 in /  1017.8 hPa WNW 0.7 mph /  1.1 km/h 3.5 mph /  5.6 km/h 65 % 0.00 in /  0 mm
11:49 79.8 °F /  26.6 °C 66.1 °F /  18.9 °C 30.06 in /  1017.8 hPa West 0.7 mph /  1.1 km/h 6.9 mph /  11.1 km/h 63 % 0.00 in /  0 mm
11:54 80.4 °F /  26.9 °C 66.2 °F /  19 °C 30.06 in /  1017.8 hPa SSE 1.3 mph /  2.1 km/h 3.5 mph /  5.6 km/h 62 % 0.00 in /  0 mm
11:59 81.3 °F /  27.4 °C 67.0 °F /  19.4 °C 30.06 in /  1017.8 hPa SE 0.2 mph /  0.3 km/h 3.5 mph /  5.6 km/h 62 % 0.00 in /  0 mm
12:04 82.2 °F /  27.9 °C 67.4 °F /  19.7 °C 30.06 in /  1017.8 hPa WSW 2.8 mph /  4.5 km/h 6.9 mph /  11.1 km/h 61 % 0.00 in /  0 mm
12:09 82.7 °F /  28.2 °C 65.9 °F /  18.8 °C 30.06 in /  1017.8 hPa SW 2.0 mph /  3.2 km/h 3.5 mph /  5.6 km/h 57 % 0.00 in /  0 mm
12:19 83.8 °F /  28.8 °C 68.4 °F /  20.2 °C 30.07 in /  1018.2 hPa NW 1.0 mph /  1.6 km/h 4.6 mph /  7.4 km/h 60 % 0.00 in /  0 mm
12:24 84.0 °F /  28.9 °C 69.1 °F /  20.6 °C 30.06 in /  1017.8 hPa NNW 3.2 mph /  5.1 km/h 5.8 mph /  9.3 km/h 61 % 0.00 in /  0 mm
12:29 83.9 °F /  28.8 °C 68.5 °F /  20.3 °C 30.07 in /  1018.2 hPa NNW 0.8 mph /  1.3 km/h 3.5 mph /  5.6 km/h 60 % 0.00 in /  0 mm
12:34 84.0 °F /  28.9 °C 67.6 °F /  19.8 °C 30.06 in /  1017.8 hPa NNW 1.3 mph /  2.1 km/h 3.5 mph /  5.6 km/h 58 % 0.00 in /  0 mm
12:39 84.1 °F /  28.9 °C 68.2 °F /  20.1 °C 30.06 in /  1017.8 hPa West 0.8 mph /  1.3 km/h 2.3 mph /  3.7 km/h 59 % 0.00 in /  0 mm
12:44 84.2 °F /  29 °C 67.3 °F /  19.6 °C 30.05 in /  1017.5 hPa NW 0.9 mph /  1.4 km/h 3.0 mph /  4.8 km/h 57 % 0.00 in /  0 mm
12:49 84.3 °F /  29.1 °C 66.4 °F /  19.1 °C 30.05 in /  1017.5 hPa WNW 3.6 mph /  5.8 km/h 5.0 mph /  8 km/h 55 % 0.00 in /  0 mm
12:59 84.3 °F /  29.1 °C 66.4 °F /  19.1 °C 30.04 in /  1017.2 hPa West 3.1 mph /  5 km/h 4.6 mph /  7.4 km/h 55 % 0.00 in /  0 mm
13:04 84.4 °F /  29.1 °C 68.0 °F /  20 °C 30.04 in /  1017.2 hPa WSW 2.3 mph /  3.7 km/h 3.5 mph /  5.6 km/h 58 % 0.00 in /  0 mm
13:14 84.6 °F /  29.2 °C 66.1 °F /  18.9 °C 30.04 in /  1017.2 hPa West 2.6 mph /  4.2 km/h 4.0 mph /  6.4 km/h 54 % 0.00 in /  0 mm
13:19 84.5 °F /  29.2 °C 66.6 °F /  19.2 °C 30.04 in /  1017.2 hPa WNW 0.5 mph /  0.8 km/h 1.2 mph /  1.9 km/h 55 % 0.00 in /  0 mm
13:24 84.3 °F /  29.1 °C 67.4 °F /  19.7 °C 30.03 in /  1016.8 hPa WNW 1.0 mph /  1.6 km/h 2.3 mph /  3.7 km/h 57 % 0.00 in /  0 mm
13:30 84.1 °F /  28.9 °C 66.7 °F /  19.3 °C 30.03 in /  1016.8 hPa SW 2.5 mph /  4 km/h 6.9 mph /  11.1 km/h 56 % 0.00 in /  0 mm
13:35 83.8 °F /  28.8 °C 67.9 °F /  19.9 °C 30.03 in /  1016.8 hPa West 0.1 mph /  0.2 km/h 2.3 mph /  3.7 km/h 59 % 0.00 in /  0 mm
13:40 83.6 °F /  28.7 °C 67.3 °F /  19.6 °C 30.03 in /  1016.8 hPa WNW 1.6 mph /  2.6 km/h 3.5 mph /  5.6 km/h 58 % 0.00 in /  0 mm
13:45 83.3 °F /  28.5 °C 67.5 °F /  19.7 °C 30.03 in /  1016.8 hPa West 2.9 mph /  4.7 km/h 4.6 mph /  7.4 km/h 59 % 0.00 in /  0 mm
13:50 83.0 °F /  28.3 °C 67.2 °F /  19.6 °C 30.03 in /  1016.8 hPa West 2.8 mph /  4.5 km/h 3.5 mph /  5.6 km/h 59 % 0.00 in /  0 mm
13:55 82.8 °F /  28.2 °C 67.0 °F /  19.4 °C 30.02 in /  1016.5 hPa WNW 2.0 mph /  3.2 km/h 4.6 mph /  7.4 km/h 59 % 0.00 in /  0 mm
14:00 82.5 °F /  28.1 °C 66.7 °F /  19.3 °C 30.02 in /  1016.5 hPa Calm   1.2 mph /  1.9 km/h 59 % 0.00 in /  0 mm
14:05 82.3 °F /  27.9 °C 66.5 °F /  19.2 °C 30.02 in /  1016.5 hPa WNW 0.7 mph /  1.1 km/h 3.5 mph /  5.6 km/h 59 % 0.00 in /  0 mm
14:10 82.3 °F /  27.9 °C 66.5 °F /  19.2 °C 30.02 in /  1016.5 hPa SW 3.9 mph /  6.3 km/h 6.9 mph /  11.1 km/h 59 % 0.00 in /  0 mm
14:15 82.4 °F /  28 °C 67.1 °F /  19.5 °C 30.02 in /  1016.5 hPa WSW 5.5 mph /  8.9 km/h 9.2 mph /  14.8 km/h 60 % 0.00 in /  0 mm
14:16 82.4 °F /  28 °C 67.1 °F /  19.5 °C 30.02 in /  1016.5 hPa WNW 3.7 mph /  6 km/h 9.2 mph /  14.8 km/h 60 % 0.00 in /  0 mm
14:21 82.6 °F /  28.1 °C 66.8 °F /  19.3 °C 30.02 in /  1016.5 hPa WSW 5.0 mph /  8 km/h 6.9 mph /  11.1 km/h 59 % 0.00 in /  0 mm
14:26 82.9 °F /  28.3 °C 66.6 °F /  19.2 °C 30.02 in /  1016.5 hPa WSW 4.0 mph /  6.4 km/h 8.1 mph /  13 km/h 58 % 0.00 in /  0 mm
14:31 83.1 °F /  28.4 °C 66.3 °F /  19.1 °C 30.02 in /  1016.5 hPa SW 3.3 mph /  5.3 km/h 11.5 mph /  18.5 km/h 57 % 0.00 in /  0 mm
14:36 83.3 °F /  28.5 °C 66.0 °F /  18.9 °C 30.01 in /  1016.1 hPa SSW 4.0 mph /  6.4 km/h 5.8 mph /  9.3 km/h 56 % 0.00 in /  0 mm
14:41 83.4 °F /  28.6 °C 66.6 °F /  19.2 °C 30.01 in /  1016.1 hPa WSW 4.8 mph /  7.7 km/h 6.0 mph /  9.7 km/h 57 % 0.00 in /  0 mm
14:46 83.5 °F /  28.6 °C 66.7 °F /  19.3 °C 30.01 in /  1016.1 hPa West 3.1 mph /  5 km/h 5.8 mph /  9.3 km/h 57 % 0.00 in /  0 mm
14:51 83.6 °F /  28.7 °C 67.3 °F /  19.6 °C 30.01 in /  1016.1 hPa West 2.9 mph /  4.7 km/h 3.5 mph /  5.6 km/h 58 % 0.00 in /  0 mm
15:01 83.6 °F /  28.7 °C 66.8 °F /  19.3 °C 30.01 in /  1016.1 hPa WSW 0.1 mph /  0.2 km/h 1.2 mph /  1.9 km/h 57 % 0.00 in /  0 mm
15:06 83.7 °F /  28.7 °C 68.3 °F /  20.2 °C 30.01 in /  1016.1 hPa SSW 1.9 mph /  3.1 km/h 3.5 mph /  5.6 km/h 60 % 0.00 in /  0 mm
15:11 83.8 °F /  28.8 °C 66.9 °F /  19.4 °C 30.00 in /  1015.8 hPa West 1.0 mph /  1.6 km/h 6.9 mph /  11.1 km/h 57 % 0.00 in /  0 mm
15:16 83.9 °F /  28.8 °C 67.0 °F /  19.4 °C 30.01 in /  1016.1 hPa SW 2.0 mph /  3.2 km/h 6.9 mph /  11.1 km/h 57 % 0.00 in /  0 mm
15:21 83.8 °F /  28.8 °C 66.9 °F /  19.4 °C 30.01 in /  1016.1 hPa SW 3.1 mph /  5 km/h 5.8 mph /  9.3 km/h 57 % 0.00 in /  0 mm
15:26 83.6 °F /  28.7 °C 67.3 °F /  19.6 °C 30.00 in /  1015.8 hPa SSW 0.1 mph /  0.2 km/h 2.3 mph /  3.7 km/h 58 % 0.00 in /  0 mm
15:36 83.2 °F /  28.4 °C 66.9 °F /  19.4 °C 30.00 in /  1015.8 hPa WSW 1.0 mph /  1.6 km/h 6.9 mph /  11.1 km/h 58 % 0.00 in /  0 mm
15:41 82.9 °F /  28.3 °C 67.1 °F /  19.5 °C 30.00 in /  1015.8 hPa SSW 1.9 mph /  3.1 km/h 3.5 mph /  5.6 km/h 59 % 0.00 in /  0 mm
15:47 82.7 °F /  28.2 °C 66.9 °F /  19.4 °C 30.00 in /  1015.8 hPa South 1.8 mph /  2.9 km/h 3.5 mph /  5.6 km/h 59 % 0.00 in /  0 mm
15:52 82.5 °F /  28.1 °C 66.7 °F /  19.3 °C 29.99 in /  1015.5 hPa SW 1.3 mph /  2.1 km/h 3.5 mph /  5.6 km/h 59 % 0.00 in /  0 mm
15:57 82.3 °F /  27.9 °C 67.5 °F /  19.7 °C 30.00 in /  1015.8 hPa South 2.5 mph /  4 km/h 3.5 mph /  5.6 km/h 61 % 0.00 in /  0 mm
16:02 82.2 °F /  27.9 °C 66.9 °F /  19.4 °C 29.99 in /  1015.5 hPa WSW 0.4 mph /  0.6 km/h 2.3 mph /  3.7 km/h 60 % 0.00 in /  0 mm
16:07 82.0 °F /  27.8 °C 66.7 °F /  19.3 °C 29.99 in /  1015.5 hPa SW 0.4 mph /  0.6 km/h 3.5 mph /  5.6 km/h 60 % 0.00 in /  0 mm
16:12 81.9 °F /  27.7 °C 67.1 °F /  19.5 °C 29.99 in /  1015.5 hPa SW 2.3 mph /  3.7 km/h 4.6 mph /  7.4 km/h 61 % 0.00 in /  0 mm
16:17 81.8 °F /  27.7 °C 67.0 °F /  19.4 °C 29.99 in /  1015.5 hPa WSW 1.1 mph /  1.8 km/h 3.5 mph /  5.6 km/h 61 % 0.00 in /  0 mm
16:22 81.6 °F /  27.6 °C 67.3 °F /  19.6 °C 29.99 in /  1015.5 hPa WSW 0.1 mph /  0.2 km/h 1.2 mph /  1.9 km/h 62 % 0.00 in /  0 mm
16:27 81.4 °F /  27.4 °C 67.1 °F /  19.5 °C 29.99 in /  1015.5 hPa WSW 1.1 mph /  1.8 km/h 3.5 mph /  5.6 km/h 62 % 0.00 in /  0 mm
16:32 81.3 °F /  27.4 °C 67.0 °F /  19.4 °C 29.99 in /  1015.5 hPa WSW 0.4 mph /  0.6 km/h 1.2 mph /  1.9 km/h 62 % 0.00 in /  0 mm
16:37 81.2 °F /  27.3 °C 67.4 °F /  19.7 °C 29.99 in /  1015.5 hPa Calm   1.2 mph /  1.9 km/h 63 % 0.00 in /  0 mm
16:42 81.1 °F /  27.3 °C 67.3 °F /  19.6 °C 29.99 in /  1015.5 hPa SW 1.9 mph /  3.1 km/h 4.6 mph /  7.4 km/h 63 % 0.00 in /  0 mm
16:47 81.0 °F /  27.2 °C 67.2 °F /  19.6 °C 29.99 in /  1015.5 hPa WSW 0.6 mph /  1 km/h 5.8 mph /  9.3 km/h 63 % 0.00 in /  0 mm
16:52 80.9 °F /  27.2 °C 67.1 °F /  19.5 °C 29.99 in /  1015.5 hPa Calm   1.2 mph /  1.9 km/h 63 % 0.00 in /  0 mm
16:57 80.8 °F /  27.1 °C 67.5 °F /  19.7 °C 29.99 in /  1015.5 hPa SW 0.2 mph /  0.3 km/h 1.2 mph /  1.9 km/h 64 % 0.00 in /  0 mm
17:02 80.7 °F /  27.1 °C 66.9 °F /  19.4 °C 29.99 in /  1015.5 hPa WSW 0.1 mph /  0.2 km/h 1.2 mph /  1.9 km/h 63 % 0.00 in /  0 mm
17:07 80.5 °F /  26.9 °C 66.7 °F /  19.3 °C 29.99 in /  1015.5 hPa Calm     63 % 0.00 in /  0 mm
17:12 80.4 °F /  26.9 °C 67.1 °F /  19.5 °C 29.99 in /  1015.5 hPa SW 0.4 mph /  0.6 km/h 3.5 mph /  5.6 km/h 64 % 0.00 in /  0 mm
17:17 80.2 °F /  26.8 °C 66.9 °F /  19.4 °C 29.99 in /  1015.5 hPa Calm     64 % 0.00 in /  0 mm
17:27 79.9 °F /  26.6 °C 67.1 °F /  19.5 °C 29.99 in /  1015.5 hPa Calm   1.2 mph /  1.9 km/h 65 % 0.00 in /  0 mm
17:32 79.7 °F /  26.5 °C 66.9 °F /  19.4 °C 29.98 in /  1015.1 hPa Calm   1.0 mph /  1.6 km/h 65 % 0.00 in /  0 mm
17:37 79.6 °F /  26.4 °C 67.2 °F /  19.6 °C 29.99 in /  1015.5 hPa SW 0.1 mph /  0.2 km/h 1.2 mph /  1.9 km/h 66 % 0.00 in /  0 mm
17:42 79.4 °F /  26.3 °C 67.0 °F /  19.4 °C 29.99 in /  1015.5 hPa SW 0.1 mph /  0.2 km/h 1.2 mph /  1.9 km/h 66 % 0.00 in /  0 mm
17:47 79.2 °F /  26.2 °C 67.3 °F /  19.6 °C 29.99 in /  1015.5 hPa Calm   1.2 mph /  1.9 km/h 67 % 0.00 in /  0 mm
17:57 78.7 °F /  25.9 °C 67.2 °F /  19.6 °C 29.98 in /  1015.1 hPa SW 0.2 mph /  0.3 km/h 2.3 mph /  3.7 km/h 68 % 0.00 in /  0 mm
18:02 78.5 °F /  25.8 °C 67.5 °F /  19.7 °C 29.98 in /  1015.1 hPa SSW 0.4 mph /  0.6 km/h 4.0 mph /  6.4 km/h 69 % 0.00 in /  0 mm
18:12 77.9 °F /  25.5 °C 67.3 °F /  19.6 °C 29.99 in /  1015.5 hPa SSW 1.7 mph /  2.7 km/h 4.0 mph /  6.4 km/h 70 % 0.00 in /  0 mm
18:17 77.6 °F /  25.3 °C 67.0 °F /  19.4 °C 29.98 in /  1015.1 hPa SSW 0.8 mph /  1.3 km/h 3.5 mph /  5.6 km/h 70 % 0.00 in /  0 mm
18:22 77.4 °F /  25.2 °C 66.8 °F /  19.3 °C 29.98 in /  1015.1 hPa SSW 0.4 mph /  0.6 km/h 3.5 mph /  5.6 km/h 70 % 0.00 in /  0 mm
18:27 77.1 °F /  25.1 °C 66.6 °F /  19.2 °C 29.98 in /  1015.1 hPa Calm   1.2 mph /  1.9 km/h 70 % 0.00 in /  0 mm
18:32 77.0 °F /  25 °C 66.9 °F /  19.4 °C 29.98 in /  1015.1 hPa SSW 0.4 mph /  0.6 km/h 2.0 mph /  3.2 km/h 71 % 0.00 in /  0 mm
18:37 76.7 °F /  24.8 °C 66.6 °F /  19.2 °C 29.98 in /  1015.1 hPa SW 0.4 mph /  0.6 km/h 3.5 mph /  5.6 km/h 71 % 0.00 in /  0 mm
18:42 76.5 °F /  24.7 °C 66.4 °F /  19.1 °C 29.98 in /  1015.1 hPa SSW 2.8 mph /  4.5 km/h 5.8 mph /  9.3 km/h 71 % 0.00 in /  0 mm
18:47 76.3 °F /  24.6 °C 66.6 °F /  19.2 °C 29.98 in /  1015.1 hPa SSW 1.2 mph /  1.9 km/h 3.0 mph /  4.8 km/h 72 % 0.00 in /  0 mm
18:52 76.1 °F /  24.5 °C 66.4 °F /  19.1 °C 29.98 in /  1015.1 hPa SSW 0.6 mph /  1 km/h 1.2 mph /  1.9 km/h 72 % 0.00 in /  0 mm
18:57 75.9 °F /  24.4 °C 66.6 °F /  19.2 °C 29.98 in /  1015.1 hPa SSW 2.5 mph /  4 km/h 3.5 mph /  5.6 km/h 73 % 0.00 in /  0 mm
19:02 75.8 °F /  24.3 °C 66.5 °F /  19.2 °C 29.98 in /  1015.1 hPa SSW 1.1 mph /  1.8 km/h 2.3 mph /  3.7 km/h 73 % 0.00 in /  0 mm
19:12 75.3 °F /  24.1 °C 66.4 °F /  19.1 °C 29.99 in /  1015.5 hPa SSW 1.2 mph /  1.9 km/h 2.3 mph /  3.7 km/h 74 % 0.00 in /  0 mm
19:18 75.2 °F /  24 °C 66.3 °F /  19.1 °C 29.99 in /  1015.5 hPa West 0.4 mph /  0.6 km/h 3.5 mph /  5.6 km/h 74 % 0.00 in /  0 mm
19:23 75.1 °F /  23.9 °C 66.2 °F /  19 °C 29.99 in /  1015.5 hPa SW 1.6 mph /  2.6 km/h 5.8 mph /  9.3 km/h 74 % 0.00 in /  0 mm
19:33 74.9 °F /  23.8 °C 66.1 °F /  18.9 °C 29.99 in /  1015.5 hPa SSW 0.3 mph /  0.5 km/h 2.0 mph /  3.2 km/h 74 % 0.00 in /  0 mm
19:38 74.8 °F /  23.8 °C 66.0 °F /  18.9 °C 29.99 in /  1015.5 hPa SW 1.0 mph /  1.6 km/h 3.5 mph /  5.6 km/h 74 % 0.00 in /  0 mm
19:43 74.7 °F /  23.7 °C 65.9 °F /  18.8 °C 29.99 in /  1015.5 hPa WSW 1.7 mph /  2.7 km/h 3.5 mph /  5.6 km/h 74 % 0.00 in /  0 mm
19:48 74.6 °F /  23.7 °C 66.1 °F /  18.9 °C 29.99 in /  1015.5 hPa SW 0.3 mph /  0.5 km/h 2.0 mph /  3.2 km/h 75 % 0.00 in /  0 mm
19:53 74.6 °F /  23.7 °C 66.1 °F /  18.9 °C 29.99 in /  1015.5 hPa SW 0.5 mph /  0.8 km/h 2.3 mph /  3.7 km/h 75 % 0.00 in /  0 mm
19:58 74.5 °F /  23.6 °C 66.1 °F /  18.9 °C 29.99 in /  1015.5 hPa SW 0.2 mph /  0.3 km/h 2.3 mph /  3.7 km/h 75 % 0.00 in /  0 mm
20:03 74.4 °F /  23.6 °C 66.0 °F /  18.9 °C 30.00 in /  1015.8 hPa SW 0.7 mph /  1.1 km/h 2.3 mph /  3.7 km/h 75 % 0.00 in /  0 mm
20:08 74.4 °F /  23.6 °C 66.0 °F /  18.9 °C 29.99 in /  1015.5 hPa SW 0.3 mph /  0.5 km/h 3.5 mph /  5.6 km/h 75 % 0.00 in /  0 mm
20:13 74.3 °F /  23.5 °C 65.5 °F /  18.6 °C 30.00 in /  1015.8 hPa South 0.2 mph /  0.3 km/h 2.3 mph /  3.7 km/h 74 % 0.00 in /  0 mm
20:18 74.3 °F /  23.5 °C 65.5 °F /  18.6 °C 30.00 in /  1015.8 hPa Calm   1.2 mph /  1.9 km/h 74 % 0.00 in /  0 mm
20:23 74.2 °F /  23.4 °C 65.4 °F /  18.6 °C 29.99 in /  1015.5 hPa SSE 2.6 mph /  4.2 km/h 5.8 mph /  9.3 km/h 74 % 0.00 in /  0 mm
20:28 74.2 °F /  23.4 °C 65.0 °F /  18.3 °C 29.99 in /  1015.5 hPa SW 1.1 mph /  1.8 km/h 4.6 mph /  7.4 km/h 73 % 0.00 in /  0 mm
20:39 74.2 °F /  23.4 °C 65.0 °F /  18.3 °C 30.00 in /  1015.8 hPa SW 1.4 mph /  2.3 km/h 3.5 mph /  5.6 km/h 73 % 0.00 in /  0 mm
20:44 74.2 °F /  23.4 °C 64.6 °F /  18.1 °C 30.00 in /  1015.8 hPa WSW 1.7 mph /  2.7 km/h 4.6 mph /  7.4 km/h 72 % 0.00 in /  0 mm
20:49 74.3 °F /  23.5 °C 64.7 °F /  18.2 °C 30.00 in /  1015.8 hPa SW 4.1 mph /  6.6 km/h 8.1 mph /  13 km/h 72 % 0.00 in /  0 mm
20:54 74.4 °F /  23.6 °C 64.8 °F /  18.2 °C 30.00 in /  1015.8 hPa WSW 2.0 mph /  3.2 km/h 4.6 mph /  7.4 km/h 72 % 0.00 in /  0 mm
20:59 74.4 °F /  23.6 °C 64.8 °F /  18.2 °C 30.00 in /  1015.8 hPa SW 2.4 mph /  3.9 km/h 6.9 mph /  11.1 km/h 72 % 0.00 in /  0 mm
21:04 74.5 °F /  23.6 °C 64.5 °F /  18.1 °C 30.00 in /  1015.8 hPa SSW 0.6 mph /  1 km/h 3.5 mph /  5.6 km/h 71 % 0.00 in /  0 mm
21:09 74.6 °F /  23.7 °C 65.0 °F /  18.3 °C 30.01 in /  1016.1 hPa SW 0.2 mph /  0.3 km/h 2.3 mph /  3.7 km/h 72 % 0.00 in /  0 mm
21:29 74.6 °F /  23.7 °C 64.6 °F /  18.1 °C 30.01 in /  1016.1 hPa South 1.5 mph /  2.4 km/h 5.8 mph /  9.3 km/h 71 % 0.00 in /  0 mm
21:34 74.6 °F /  23.7 °C 64.6 °F /  18.1 °C 30.01 in /  1016.1 hPa WSW 1.8 mph /  2.9 km/h 6.9 mph /  11.1 km/h 71 % 0.00 in /  0 mm
21:39 74.6 °F /  23.7 °C 64.6 °F /  18.1 °C 30.01 in /  1016.1 hPa WSW 4.3 mph /  6.9 km/h 6.9 mph /  11.1 km/h 71 % 0.00 in /  0 mm
21:44 74.6 °F /  23.7 °C 64.2 °F /  17.9 °C 30.01 in /  1016.1 hPa SSW 3.7 mph /  6 km/h 6.9 mph /  11.1 km/h 70 % 0.00 in /  0 mm
21:49 74.6 °F /  23.7 °C 64.6 °F /  18.1 °C 30.01 in /  1016.1 hPa WSW 1.3 mph /  2.1 km/h 3.0 mph /  4.8 km/h 71 % 0.00 in /  0 mm
22:04 74.6 °F /  23.7 °C 64.2 °F /  17.9 °C 30.01 in /  1016.1 hPa WSW 3.2 mph /  5.1 km/h 6.0 mph /  9.7 km/h 70 % 0.00 in /  0 mm
22:09 74.6 °F /  23.7 °C 64.6 °F /  18.1 °C 30.01 in /  1016.1 hPa SW 1.7 mph /  2.7 km/h 3.5 mph /  5.6 km/h 71 % 0.00 in /  0 mm
22:14 74.6 °F /  23.7 °C 64.6 °F /  18.1 °C 30.01 in /  1016.1 hPa SSW 0.8 mph /  1.3 km/h 3.5 mph /  5.6 km/h 71 % 0.00 in /  0 mm
22:19 74.6 °F /  23.7 °C 64.6 °F /  18.1 °C 30.01 in /  1016.1 hPa SW 4.2 mph /  6.8 km/h 5.8 mph /  9.3 km/h 71 % 0.00 in /  0 mm
22:24 74.6 °F /  23.7 °C 64.6 °F /  18.1 °C 30.01 in /  1016.1 hPa SW 3.8 mph /  6.1 km/h 5.8 mph /  9.3 km/h 71 % 0.00 in /  0 mm
22:29 74.5 °F /  23.6 °C 64.5 °F /  18.1 °C 30.01 in /  1016.1 hPa WSW 3.8 mph /  6.1 km/h 9.2 mph /  14.8 km/h 71 % 0.00 in /  0 mm
22:34 74.5 °F /  23.6 °C 64.5 °F /  18.1 °C 30.01 in /  1016.1 hPa SW 1.7 mph /  2.7 km/h 3.5 mph /  5.6 km/h 71 % 0.00 in /  0 mm
22:39 74.4 °F /  23.6 °C 64.4 °F /  18 °C 30.01 in /  1016.1 hPa WSW 0.3 mph /  0.5 km/h 2.3 mph /  3.7 km/h 71 % 0.00 in /  0 mm
22:44 74.4 °F /  23.6 °C 64.4 °F /  18 °C 30.01 in /  1016.1 hPa SW 1.4 mph /  2.3 km/h 3.5 mph /  5.6 km/h 71 % 0.00 in /  0 mm
22:49 74.3 °F /  23.5 °C 64.3 °F /  17.9 °C 30.01 in /  1016.1 hPa SW 3.1 mph /  5 km/h 6.9 mph /  11.1 km/h 71 % 0.00 in /  0 mm
22:54 74.3 °F /  23.5 °C 64.7 °F /  18.2 °C 30.01 in /  1016.1 hPa WSW 4.3 mph /  6.9 km/h 10.4 mph /  16.7 km/h 72 % 0.00 in /  0 mm
22:59 74.2 °F /  23.4 °C 64.6 °F /  18.1 °C 30.01 in /  1016.1 hPa WSW 3.0 mph /  4.8 km/h 4.0 mph /  6.4 km/h 72 % 0.00 in /  0 mm
23:04 74.2 °F /  23.4 °C 64.6 °F /  18.1 °C 30.01 in /  1016.1 hPa SSW 3.7 mph /  6 km/h 5.8 mph /  9.3 km/h 72 % 0.00 in /  0 mm
23:09 74.1 °F /  23.4 °C 64.9 °F /  18.3 °C 30.01 in /  1016.1 hPa SSW 1.4 mph /  2.3 km/h 4.6 mph /  7.4 km/h 73 % 0.00 in /  0 mm
23:15 74.0 °F /  23.3 °C 65.2 °F /  18.4 °C 30.02 in /  1016.5 hPa SW 2.4 mph /  3.9 km/h 5.8 mph /  9.3 km/h 74 % 0.00 in /  0 mm
23:20 74.0 °F /  23.3 °C 66.0 °F /  18.9 °C 30.02 in /  1016.5 hPa WSW 3.5 mph /  5.6 km/h 6.0 mph /  9.7 km/h 76 % 0.00 in /  0 mm
23:23 73.9 °F /  23.3 °C 65.9 °F /  18.8 °C 29.90 in /  1012.4 hPa WSW 0.7 mph /  1.1 km/h 6.9 mph /  11.1 km/h 76 % 0.00 in /  0 mm
23:25 73.8 °F /  23.2 °C 65.8 °F /  18.8 °C 30.02 in /  1016.5 hPa SW 1.9 mph /  3.1 km/h 4.0 mph /  6.4 km/h 76 % 0.00 in /  0 mm
23:26 73.8 °F /  23.2 °C 65.8 °F /  18.8 °C 30.02 in /  1016.5 hPa WSW 2.6 mph /  4.2 km/h 6.0 mph /  9.7 km/h 76 % 0.00 in /  0 mm
23:31 73.7 °F /  23.2 °C 66.0 °F /  18.9 °C 30.02 in /  1016.5 hPa WSW 2.0 mph /  3.2 km/h 5.0 mph /  8 km/h 77 % 0.00 in /  0 mm
23:41 73.3 °F /  22.9 °C 66.0 °F /  18.9 °C 30.02 in /  1016.5 hPa Calm   2.0 mph /  3.2 km/h 78 % 0.00 in /  0 mm
23:46 73.1 °F /  22.8 °C 66.2 °F /  19 °C 30.02 in /  1016.5 hPa SW 1.0 mph /  1.6 km/h 4.0 mph /  6.4 km/h 79 % 0.00 in /  0 mm
23:51 72.9 °F /  22.7 °C 66.3 °F /  19.1 °C 30.02 in /  1016.5 hPa Calm   4.0 mph /  6.4 km/h 80 % 0.00 in /  0 mm
23:56 72.6 °F /  22.6 °C 66.1 °F /  18.9 °C 30.02 in /  1016.5 hPa WSW 1.0 mph /  1.6 km/h 5.0 mph /  8 km/h 80 % 0.00 in /  0 mm
Crab Meadow Weather
Compliments of Weather Underground - 3 mb

Script developed by  Jim McMurry - jmcmurry@mwt.net Adapted for the template by  Wim van der Kuil - Leuven-Template.eu

Weather Terms: Frost Advisory - Widespread frost during the growing season. Frost generally occurs with fair skies and light winds.